Wells, Pennsylvania
Current Conditions -  °F | °C
As of 5:53 PM on Monday 24 Nov 2014 (Local Time) from KELM Reporting Station
Broken Clouds Broken Clouds  
Wind Chill: 66°   Ceiling: 8500
Heat Index: 66°   Visibility: 10mi
Dew Point: 50°   Wind: 14mph
Humidity: 56%   Direction: 210°SSW
Pressure: 29.47"   Gusts: 26mph
Location:  41.9519°N, 76.7808°W
Report Text: KELM 242253Z 21012G23KT 10SM BKN085 19/10 A2947 RMK AO2 RAE2158 SLP975 P0000 T01890100
Loading
Personal Weather Stations






























Interactive Weather Map New forecast layout! Learn more

10-Day Weather Forecast

Advertisements
Track Severe Weather on mobile